Meadow, South Dakota
Current Conditions -  °F | °C
As of 1:53 PM on Monday 24 Nov 2014 (Local Time) from KHEI Reporting Station
Scattered Clouds Scattered Clouds  
Wind Chill: 12°   Ceiling: Unl
Heat Index: 25°   Visibility: 10mi
Dew Point: 16°   Wind: 16mph
Humidity: 69%   Direction: 310°NW
Pressure: 29.96"   Gusts: 25mph
Location:  45.53°N, 102.22°W
Report Text: KHEI 242053Z AUTO 31014G22KT 10SM SCT120 M04/M09 A2996 RMK AO2 SLP185 T10391089 53015
Loading
Personal Weather Stations






























Interactive Weather Map New forecast layout! Learn more

10-Day Weather Forecast

Advertisements
Track Severe Weather on mobile